createdAt,value
2023-11-04T00:00:56.047Z,4.30
2023-11-04T00:03:30.238Z,4.30
2023-11-04T00:05:56.973Z,4.20
2023-11-04T00:08:23.642Z,4.20
2023-11-04T00:10:54.101Z,4.20
2023-11-04T01:24:46.318Z,4.20
2023-11-04T01:27:12.996Z,3.70
2023-11-04T01:29:39.724Z,3.60
2023-11-04T01:32:07.223Z,3.60
2023-11-04T01:34:34.477Z,3.60
2023-11-04T01:37:01.468Z,3.50
2023-11-04T01:39:28.248Z,3.50
2023-11-04T01:41:56.563Z,3.60
2023-11-04T01:44:23.390Z,3.60
2023-11-04T01:46:50.677Z,3.60
2023-11-04T01:49:17.856Z,3.60
2023-11-04T01:51:45.021Z,3.60
2023-11-04T01:54:11.844Z,3.60
2023-11-04T01:56:40.724Z,3.60
2023-11-04T01:59:11.230Z,3.60
2023-11-04T02:01:39.410Z,3.60
2023-11-04T02:04:07.643Z,3.60
2023-11-04T02:06:34.376Z,3.70
2023-11-04T02:09:01.458Z,3.70
2023-11-04T02:11:28.148Z,3.80
2023-11-04T02:13:54.832Z,3.80
2023-11-04T02:16:21.550Z,3.80
2023-11-04T02:18:48.392Z,3.80
2023-11-04T02:21:16.059Z,3.70
2023-11-04T02:23:42.988Z,3.70
2023-11-04T02:26:09.774Z,3.80
2023-11-04T02:28:36.523Z,3.80
2023-11-04T02:31:03.447Z,3.80
2023-11-04T02:33:30.271Z,3.80
2023-11-04T02:35:57.008Z,3.80
2023-11-04T02:38:24.148Z,3.70
2023-11-04T02:40:51.210Z,3.70
2023-11-04T02:43:17.973Z,3.60
2023-11-04T02:45:44.721Z,3.60
2023-11-04T02:48:11.563Z,3.50
2023-11-04T02:50:38.269Z,3.50
2023-11-04T02:53:04.969Z,3.50
2023-11-04T02:55:31.689Z,3.50
2023-11-04T02:57:58.419Z,3.40
2023-11-04T03:00:25.220Z,3.50
2023-11-04T03:02:52.003Z,3.40
2023-11-04T03:05:27.553Z,3.40
2023-11-04T05:32:57.648Z,3.30
2023-11-04T05:35:24.497Z,2.80
2023-11-04T05:37:51.787Z,2.70
2023-11-04T05:40:18.457Z,2.80
2023-11-04T05:42:45.238Z,2.70
2023-11-04T05:45:12.350Z,2.70
2023-11-04T05:47:39.037Z,2.60
2023-11-04T05:50:06.563Z,2.70
2023-11-04T05:52:33.275Z,2.70
2023-11-04T05:55:00.182Z,2.60
2023-11-04T05:57:26.969Z,2.60
2023-11-04T05:59:53.683Z,2.60
2023-11-04T06:02:20.363Z,2.50
2023-11-04T06:04:47.160Z,2.60
2023-11-04T06:07:14.221Z,2.60
2023-11-04T06:09:41.227Z,2.60
2023-11-04T06:12:08.805Z,2.60
2023-11-04T06:14:35.605Z,2.50
2023-11-04T06:17:03.622Z,2.50
2023-11-04T06:19:30.420Z,2.50
2023-11-04T06:21:57.265Z,2.60
2023-11-04T06:24:24.075Z,2.50
2023-11-04T06:26:50.759Z,2.50
2023-11-04T06:29:18.030Z,2.50
2023-11-04T06:31:44.774Z,2.60
2023-11-04T06:34:12.545Z,2.60
2023-11-04T06:36:39.505Z,2.60
2023-11-04T06:39:06.904Z,2.60
2023-11-04T06:41:34.606Z,2.60
2023-11-04T06:44:02.425Z,2.60
2023-11-04T06:46:29.082Z,2.60
2023-11-04T06:48:55.994Z,2.70
2023-11-04T06:51:23.121Z,2.70
2023-11-04T06:53:51.097Z,2.70
2023-11-04T06:56:17.974Z,2.70
2023-11-04T06:58:44.926Z,2.90
2023-11-04T07:01:16.377Z,2.90
2023-11-04T07:03:43.484Z,3.00
2023-11-04T07:06:19.975Z,3.00
2023-11-04T07:08:47.511Z,3.10
2023-11-04T07:11:15.769Z,3.10
2023-11-04T07:13:43.125Z,3.20
2023-11-04T07:16:10.818Z,3.30
2023-11-04T07:18:38.969Z,3.30
2023-11-04T07:21:06.319Z,3.40
2023-11-04T07:23:33.310Z,3.50
2023-11-04T07:26:00.588Z,3.60
2023-11-04T07:28:35.455Z,3.60
2023-11-04T07:31:02.593Z,3.70
2023-11-04T08:49:45.791Z,3.80
2023-11-04T09:58:51.557Z,7.00
2023-11-04T11:56:46.883Z,8.80
2023-11-04T12:01:41.020Z,10.60
2023-11-04T12:04:08.083Z,10.60
2023-11-04T12:06:37.409Z,10.40
2023-11-04T12:09:06.708Z,10.30
2023-11-04T12:11:33.677Z,10.20
2023-11-04T12:14:02.380Z,10.10
2023-11-04T12:16:33.036Z,10.20
2023-11-04T12:19:00.071Z,10.20
2023-11-04T12:21:27.154Z,10.10
2023-11-04T12:23:54.140Z,10.00
2023-11-04T12:26:30.926Z,9.90
2023-11-04T12:28:58.447Z,9.90
2023-11-04T12:31:26.290Z,10.10
2023-11-04T12:33:53.518Z,10.20
2023-11-04T12:36:20.640Z,10.40
2023-11-04T12:41:15.458Z,10.80
2023-11-04T12:43:44.588Z,11.50
2023-11-04T12:46:12.336Z,11.40
2023-11-04T12:48:39.405Z,11.40
2023-11-04T12:51:06.618Z,11.30
2023-11-04T12:53:35.199Z,11.40
2023-11-04T12:56:02.176Z,11.50
2023-11-04T12:58:28.880Z,11.40
2023-11-04T13:00:55.759Z,11.00
2023-11-04T13:03:22.537Z,10.90
2023-11-04T13:05:49.358Z,10.90
2023-11-04T13:08:16.068Z,11.00
2023-11-04T13:10:43.127Z,11.00
2023-11-04T13:13:10.132Z,11.00
2023-11-04T13:15:36.831Z,11.10
2023-11-04T13:18:04.113Z,11.10
2023-11-04T13:20:30.948Z,11.00
2023-11-04T13:22:57.638Z,11.00
2023-11-04T13:25:24.325Z,10.90
2023-11-04T13:27:51.100Z,11.10
2023-11-04T13:30:17.832Z,11.40
2023-11-04T13:32:44.885Z,11.30
2023-11-04T13:35:12.039Z,11.30
2023-11-04T13:37:38.846Z,11.40
2023-11-04T13:40:07.083Z,11.20
2023-11-04T13:42:33.915Z,11.30
2023-11-04T13:45:01.951Z,11.20
2023-11-04T13:47:31.417Z,11.10
2023-11-04T13:49:58.199Z,11.10
2023-11-04T13:52:26.040Z,11.10
2023-11-04T13:54:52.765Z,11.00
2023-11-04T13:57:20.025Z,11.10
2023-11-04T13:59:48.617Z,11.00
2023-11-04T14:02:15.740Z,11.10
2023-11-04T14:04:42.659Z,11.00
2023-11-04T14:07:09.502Z,11.00
2023-11-04T14:12:03.974Z,10.80
2023-11-04T14:14:30.720Z,10.50
2023-11-04T14:16:59.007Z,10.40
2023-11-04T14:19:26.703Z,10.50
2023-11-04T14:21:53.495Z,10.80
2023-11-04T14:24:20.171Z,10.70
2023-11-04T14:26:47.088Z,10.50
2023-11-04T14:29:13.728Z,10.40
2023-11-04T15:06:11.818Z,10.30
2023-11-04T15:08:38.666Z,10.30
2023-11-04T15:11:05.482Z,10.50
2023-11-04T15:13:32.215Z,10.50
2023-11-04T15:15:59.057Z,10.30
2023-11-04T15:18:25.845Z,10.20
2023-11-04T17:04:24.268Z,10.00
2023-11-04T17:06:51.212Z,8.10
2023-11-04T17:09:19.166Z,8.00
2023-11-04T17:11:46.397Z,8.00
2023-11-04T17:14:13.160Z,8.00
2023-11-04T17:16:39.907Z,8.20
2023-11-04T17:19:07.153Z,8.10
2023-11-04T17:21:33.990Z,8.20
2023-11-04T17:24:00.766Z,8.30
2023-11-04T17:26:27.475Z,8.40
2023-11-04T17:28:54.173Z,8.40
2023-11-04T18:35:27.658Z,8.30
2023-11-04T18:37:54.410Z,7.70
2023-11-04T18:40:21.524Z,7.70
2023-11-04T18:42:48.740Z,7.70
2023-11-04T18:45:15.540Z,7.60
2023-11-04T18:47:42.324Z,7.60
2023-11-04T18:50:09.487Z,7.60
2023-11-04T18:52:38.159Z,7.60
2023-11-04T18:55:06.287Z,7.60
2023-11-04T18:57:34.972Z,7.60
2023-11-04T22:36:26.203Z,7.60
2023-11-04T22:38:52.914Z,8.50
2023-11-04T22:41:19.664Z,8.50
2023-11-04T22:43:46.354Z,8.70
2023-11-04T22:46:13.123Z,8.80
2023-11-04T22:48:39.926Z,8.90
2023-11-04T22:51:06.721Z,8.80
2023-11-04T22:53:33.392Z,8.80
2023-11-04T22:56:00.611Z,8.80
2023-11-04T22:58:27.334Z,8.80
2023-11-04T23:00:54.140Z,8.80
2023-11-04T23:03:21.148Z,8.90
2023-11-04T23:05:48.421Z,8.90
2023-11-04T23:08:16.443Z,8.80
2023-11-04T23:10:43.228Z,8.80
2023-11-04T23:13:09.960Z,8.80
2023-11-04T23:15:36.723Z,8.80
2023-11-04T23:18:03.581Z,8.80
2023-11-04T23:20:30.551Z,8.80
2023-11-04T23:22:57.330Z,8.70
2023-11-04T23:25:24.615Z,8.70
2023-11-04T23:27:51.530Z,8.70
2023-11-04T23:30:18.269Z,8.60
2023-11-04T23:32:45.266Z,8.60
2023-11-04T23:35:12.245Z,8.60
2023-11-04T23:37:39.243Z,8.60
2023-11-04T23:40:07.265Z,8.60
2023-11-04T23:42:34.431Z,8.60
2023-11-04T23:45:01.467Z,8.70
2023-11-04T23:47:28.201Z,8.70
2023-11-04T23:49:54.923Z,8.70
2023-11-04T23:52:23.187Z,8.80
2023-11-04T23:54:50.265Z,8.80
2023-11-04T23:57:17.138Z,8.80
2023-11-04T23:59:43.939Z,8.80
